sensor_id;sensor_type;location;lat;lon;timestamp;temperature;humidity
26272;DHT22;13997;48.902;12.472;2022-11-20T00:00:56;51.70;2227.20
26272;DHT22;13997;48.902;12.472;2022-11-20T00:03:22;51.80;2227.20
26272;DHT22;13997;48.902;12.472;2022-11-20T00:05:48;51.70;2227.20
26272;DHT22;13997;48.902;12.472;2022-11-20T00:08:13;51.70;2227.20
26272;DHT22;13997;48.902;12.472;2022-11-20T00:10:40;51.70;2227.20
26272;DHT22;13997;48.902;12.472;2022-11-20T00:13:06;51.80;2227.20
26272;DHT22;13997;48.902;12.472;2022-11-20T00:15:33;51.80;2227.20
26272;DHT22;13997;48.902;12.472;2022-11-20T00:17:58;51.80;2227.20
26272;DHT22;13997;48.902;12.472;2022-11-20T00:20:24;51.80;2227.20
26272;DHT22;13997;48.902;12.472;2022-11-20T00:22:50;51.80;2227.20
26272;DHT22;13997;48.902;12.472;2022-11-20T00:25:16;51.80;2227.20
26272;DHT22;13997;48.902;12.472;2022-11-20T00:27:42;51.80;2227.20
26272;DHT22;13997;48.902;12.472;2022-11-20T00:30:08;51.90;2227.20
26272;DHT22;13997;48.902;12.472;2022-11-20T00:32:34;51.90;2227.20
26272;DHT22;13997;48.902;12.472;2022-11-20T00:35:00;52.00;2227.20
26272;DHT22;13997;48.902;12.472;2022-11-20T00:37:26;52.00;2227.20
26272;DHT22;13997;48.902;12.472;2022-11-20T00:39:51;52.00;2227.20
26272;DHT22;13997;48.902;12.472;2022-11-20T00:42:17;52.00;2227.20
26272;DHT22;13997;48.902;12.472;2022-11-20T00:44:43;52.00;2227.20
26272;DHT22;13997;48.902;12.472;2022-11-20T00:47:08;52.00;2227.20
26272;DHT22;13997;48.902;12.472;2022-11-20T00:49:34;51.90;2227.20
26272;DHT22;13997;48.902;12.472;2022-11-20T00:51:59;51.90;2227.20
26272;DHT22;13997;48.902;12.472;2022-11-20T00:54:25;52.00;2227.20
26272;DHT22;13997;48.902;12.472;2022-11-20T00:56:53;51.90;2227.20
26272;DHT22;13997;48.902;12.472;2022-11-20T00:59:18;52.00;2227.20
26272;DHT22;13997;48.902;12.472;2022-11-20T01:01:45;52.00;2227.20
26272;DHT22;13997;48.902;12.472;2022-11-20T01:04:10;52.00;2227.20
26272;DHT22;13997;48.902;12.472;2022-11-20T01:06:38;52.00;2227.20
26272;DHT22;13997;48.902;12.472;2022-11-20T01:09:07;52.00;2227.20
26272;DHT22;13997;48.902;12.472;2022-11-20T01:11:38;51.90;2227.20
26272;DHT22;13997;48.902;12.472;2022-11-20T01:14:07;51.80;2227.20
26272;DHT22;13997;48.902;12.472;2022-11-20T01:16:35;51.80;2227.20
26272;DHT22;13997;48.902;12.472;2022-11-20T01:19:03;51.80;2227.20
26272;DHT22;13997;48.902;12.472;2022-11-20T01:21:34;51.80;2227.20
26272;DHT22;13997;48.902;12.472;2022-11-20T01:24:01;51.70;2227.20
26272;DHT22;13997;48.902;12.472;2022-11-20T01:26:29;51.70;2227.20
26272;DHT22;13997;48.902;12.472;2022-11-20T01:28:57;51.70;2227.20
26272;DHT22;13997;48.902;12.472;2022-11-20T01:31:25;51.70;2227.20
26272;DHT22;13997;48.902;12.472;2022-11-20T01:33:53;51.80;2227.20
26272;DHT22;13997;48.902;12.472;2022-11-20T01:36:20;51.90;2227.20
26272;DHT22;13997;48.902;12.472;2022-11-20T01:38:46;51.90;2227.20
26272;DHT22;13997;48.902;12.472;2022-11-20T01:41:13;52.00;2227.20
26272;DHT22;13997;48.902;12.472;2022-11-20T01:44:00;52.00;2227.20
26272;DHT22;13997;48.902;12.472;2022-11-20T01:46:26;52.10;2227.20
26272;DHT22;13997;48.902;12.472;2022-11-20T01:51:42;52.10;2227.20
26272;DHT22;13997;48.902;12.472;2022-11-20T01:54:11;76.80;2227.20
26272;DHT22;13997;48.902;12.472;2022-11-20T01:56:40;76.90;2227.20
26272;DHT22;13997;48.902;12.472;2022-11-20T01:59:10;76.90;2227.20
26272;DHT22;13997;48.902;12.472;2022-11-20T02:01:37;76.90;2227.20
26272;DHT22;13997;48.902;12.472;2022-11-20T02:04:05;76.90;2227.20
26272;DHT22;13997;48.902;12.472;2022-11-20T02:06:35;76.90;2227.20
26272;DHT22;13997;48.902;12.472;2022-11-20T02:16:31;76.80;2227.20
26272;DHT22;13997;48.902;12.472;2022-11-20T02:19:00;52.00;2227.20
26272;DHT22;13997;48.902;12.472;2022-11-20T02:21:40;51.90;2227.20
26272;DHT22;13997;48.902;12.472;2022-11-20T02:24:11;51.80;2227.20
26272;DHT22;13997;48.902;12.472;2022-11-20T02:27:06;51.80;2227.20
26272;DHT22;13997;48.902;12.472;2022-11-20T02:32:36;51.80;2227.20
26272;DHT22;13997;48.902;12.472;2022-11-20T02:35:08;51.90;2227.20
26272;DHT22;13997;48.902;12.472;2022-11-20T02:37:37;51.80;2227.20
26272;DHT22;13997;48.902;12.472;2022-11-20T02:40:04;51.80;2227.20
26272;DHT22;13997;48.902;12.472;2022-11-20T02:42:30;51.80;2227.20
26272;DHT22;13997;48.902;12.472;2022-11-20T02:44:55;51.80;2227.20
26272;DHT22;13997;48.902;12.472;2022-11-20T02:47:21;51.90;2227.20
26272;DHT22;13997;48.902;12.472;2022-11-20T02:49:46;52.00;2227.20
26272;DHT22;13997;48.902;12.472;2022-11-20T02:52:12;52.00;2227.20
26272;DHT22;13997;48.902;12.472;2022-11-20T02:54:38;52.00;2227.20
26272;DHT22;13997;48.902;12.472;2022-11-20T02:57:03;52.00;2227.20
26272;DHT22;13997;48.902;12.472;2022-11-20T02:59:29;52.10;2227.20
26272;DHT22;13997;48.902;12.472;2022-11-20T03:01:54;52.10;2227.20
26272;DHT22;13997;48.902;12.472;2022-11-20T03:04:20;76.80;2227.20
26272;DHT22;13997;48.902;12.472;2022-11-20T03:06:46;76.80;2227.20
26272;DHT22;13997;48.902;12.472;2022-11-20T03:09:11;76.90;2227.20
26272;DHT22;13997;48.902;12.472;2022-11-20T03:11:37;76.90;2227.20
26272;DHT22;13997;48.902;12.472;2022-11-20T03:14:04;76.90;2227.20
26272;DHT22;13997;48.902;12.472;2022-11-20T03:16:31;76.90;2227.20
26272;DHT22;13997;48.902;12.472;2022-11-20T03:18:57;77.00;2227.20
26272;DHT22;13997;48.902;12.472;2022-11-20T03:21:22;76.90;2227.20
26272;DHT22;13997;48.902;12.472;2022-11-20T03:23:48;77.00;2227.20
26272;DHT22;13997;48.902;12.472;2022-11-20T03:26:25;77.00;2227.20
26272;DHT22;13997;48.902;12.472;2022-11-20T03:28:56;77.00;2227.20
26272;DHT22;13997;48.902;12.472;2022-11-20T03:31:25;77.00;2227.20
26272;DHT22;13997;48.902;12.472;2022-11-20T03:33:51;77.00;2227.20
26272;DHT22;13997;48.902;12.472;2022-11-20T03:36:19;77.00;2227.20
26272;DHT22;13997;48.902;12.472;2022-11-20T03:38:45;77.00;2227.20
26272;DHT22;13997;48.902;12.472;2022-11-20T03:41:17;77.10;2227.20
26272;DHT22;13997;48.902;12.472;2022-11-20T03:43:49;77.00;2227.20
26272;DHT22;13997;48.902;12.472;2022-11-20T03:46:15;77.00;2227.20
26272;DHT22;13997;48.902;12.472;2022-11-20T03:48:41;77.00;2227.20
26272;DHT22;13997;48.902;12.472;2022-11-20T03:53:44;77.10;2227.20
26272;DHT22;13997;48.902;12.472;2022-11-20T03:56:11;77.00;2227.20
26272;DHT22;13997;48.902;12.472;2022-11-20T03:58:38;77.00;2227.20
26272;DHT22;13997;48.902;12.472;2022-11-20T04:01:13;76.90;2227.20
26272;DHT22;13997;48.902;12.472;2022-11-20T04:03:40;76.90;2227.20
26272;DHT22;13997;48.902;12.472;2022-11-20T04:06:09;77.00;2227.20
26272;DHT22;13997;48.902;12.472;2022-11-20T04:08:35;77.00;2227.20
26272;DHT22;13997;48.902;12.472;2022-11-20T04:11:14;77.00;2227.20
26272;DHT22;13997;48.902;12.472;2022-11-20T04:13:41;77.10;2227.20
26272;DHT22;13997;48.902;12.472;2022-11-20T04:16:08;77.10;2227.20
26272;DHT22;13997;48.902;12.472;2022-11-20T04:18:35;77.10;2227.20
26272;DHT22;13997;48.902;12.472;2022-11-20T04:21:01;77.10;2227.20
26272;DHT22;13997;48.902;12.472;2022-11-20T04:23:27;77.10;2227.20
26272;DHT22;13997;48.902;12.472;2022-11-20T04:25:53;77.10;2227.20
26272;DHT22;13997;48.902;12.472;2022-11-20T04:28:19;77.10;2227.20
26272;DHT22;13997;48.902;12.472;2022-11-20T04:30:45;77.10;2227.20
26272;DHT22;13997;48.902;12.472;2022-11-20T04:33:11;77.10;2227.20
26272;DHT22;13997;48.902;12.472;2022-11-20T04:35:37;77.10;2227.20
26272;DHT22;13997;48.902;12.472;2022-11-20T04:38:03;77.10;2227.20
26272;DHT22;13997;48.902;12.472;2022-11-20T04:40:29;77.10;2227.20
26272;DHT22;13997;48.902;12.472;2022-11-20T04:42:55;77.10;2227.20
26272;DHT22;13997;48.902;12.472;2022-11-20T04:45:22;77.10;2227.20
26272;DHT22;13997;48.902;12.472;2022-11-20T04:47:48;77.10;2227.20
26272;DHT22;13997;48.902;12.472;2022-11-20T04:50:14;77.00;2227.20
26272;DHT22;13997;48.902;12.472;2022-11-20T04:52:39;77.00;2227.20
26272;DHT22;13997;48.902;12.472;2022-11-20T04:55:05;76.90;2227.20
26272;DHT22;13997;48.902;12.472;2022-11-20T04:57:31;76.90;2227.20
26272;DHT22;13997;48.902;12.472;2022-11-20T04:59:57;76.90;2227.20
26272;DHT22;13997;48.902;12.472;2022-11-20T05:02:23;76.80;2227.20
26272;DHT22;13997;48.902;12.472;2022-11-20T05:04:48;76.80;2227.20
26272;DHT22;13997;48.902;12.472;2022-11-20T05:07:14;52.10;2227.20
26272;DHT22;13997;48.902;12.472;2022-11-20T05:09:40;76.80;2227.20
26272;DHT22;13997;48.902;12.472;2022-11-20T05:12:07;52.10;2227.20
26272;DHT22;13997;48.902;12.472;2022-11-20T05:14:33;52.10;2227.20
26272;DHT22;13997;48.902;12.472;2022-11-20T05:16:59;76.80;2227.20
26272;DHT22;13997;48.902;12.472;2022-11-20T05:19:24;76.80;2227.20
26272;DHT22;13997;48.902;12.472;2022-11-20T05:21:51;76.80;2227.20
26272;DHT22;13997;48.902;12.472;2022-11-20T05:24:16;76.80;2227.20
26272;DHT22;13997;48.902;12.472;2022-11-20T05:26:42;76.80;2227.20
26272;DHT22;13997;48.902;12.472;2022-11-20T05:29:10;76.90;2227.20
26272;DHT22;13997;48.902;12.472;2022-11-20T05:31:39;76.90;2227.20
26272;DHT22;13997;48.902;12.472;2022-11-20T05:34:06;76.90;2227.20
26272;DHT22;13997;48.902;12.472;2022-11-20T05:36:32;76.90;2227.20
26272;DHT22;13997;48.902;12.472;2022-11-20T05:38:57;76.90;2227.20
26272;DHT22;13997;48.902;12.472;2022-11-20T05:41:23;76.80;2227.20
26272;DHT22;13997;48.902;12.472;2022-11-20T05:43:50;76.80;2227.20
26272;DHT22;13997;48.902;12.472;2022-11-20T05:46:18;76.80;2227.20
26272;DHT22;13997;48.902;12.472;2022-11-20T05:48:45;76.80;2227.20
26272;DHT22;13997;48.902;12.472;2022-11-20T05:51:13;76.80;2227.20
26272;DHT22;13997;48.902;12.472;2022-11-20T05:53:39;52.10;2227.20
26272;DHT22;13997;48.902;12.472;2022-11-20T05:56:08;52.10;2227.20
26272;DHT22;13997;48.902;12.472;2022-11-20T05:58:35;52.00;2227.20
26272;DHT22;13997;48.902;12.472;2022-11-20T06:01:11;52.00;2227.20
26272;DHT22;13997;48.902;12.472;2022-11-20T06:03:38;52.10;2227.20
26272;DHT22;13997;48.902;12.472;2022-11-20T06:06:05;52.10;2227.20
26272;DHT22;13997;48.902;12.472;2022-11-20T06:08:32;52.10;2227.20
26272;DHT22;13997;48.902;12.472;2022-11-20T06:10:58;52.10;2227.20
26272;DHT22;13997;48.902;12.472;2022-11-20T06:13:27;76.80;2227.20
26272;DHT22;13997;48.902;12.472;2022-11-20T06:15:53;76.80;2227.20
26272;DHT22;13997;48.902;12.472;2022-11-20T06:18:19;76.80;2227.20
26272;DHT22;13997;48.902;12.472;2022-11-20T06:20:45;76.80;2227.20
26272;DHT22;13997;48.902;12.472;2022-11-20T06:23:11;76.80;2227.20
26272;DHT22;13997;48.902;12.472;2022-11-20T06:25:40;76.80;2227.20
26272;DHT22;13997;48.902;12.472;2022-11-20T06:28:07;76.80;2227.20
26272;DHT22;13997;48.902;12.472;2022-11-20T06:30:33;76.80;2227.20
26272;DHT22;13997;48.902;12.472;2022-11-20T06:32:59;52.10;2227.20
26272;DHT22;13997;48.902;12.472;2022-11-20T06:35:24;52.10;2227.20
26272;DHT22;13997;48.902;12.472;2022-11-20T06:37:50;52.10;2227.20
26272;DHT22;13997;48.902;12.472;2022-11-20T06:40:16;52.10;2227.20
26272;DHT22;13997;48.902;12.472;2022-11-20T06:42:41;52.10;2227.20
26272;DHT22;13997;48.902;12.472;2022-11-20T06:45:07;76.80;2227.20
26272;DHT22;13997;48.902;12.472;2022-11-20T06:47:33;76.80;2227.20
26272;DHT22;13997;48.902;12.472;2022-11-20T06:49:59;52.10;2227.20
26272;DHT22;13997;48.902;12.472;2022-11-20T06:52:24;76.80;2227.20
26272;DHT22;13997;48.902;12.472;2022-11-20T06:54:50;52.10;2227.20
26272;DHT22;13997;48.902;12.472;2022-11-20T06:57:16;76.80;2227.20
26272;DHT22;13997;48.902;12.472;2022-11-20T06:59:41;76.80;2227.20
26272;DHT22;13997;48.902;12.472;2022-11-20T07:02:11;76.90;2227.20
26272;DHT22;13997;48.902;12.472;2022-11-20T07:04:38;76.90;2227.20
26272;DHT22;13997;48.902;12.472;2022-11-20T07:07:03;76.90;2227.20
26272;DHT22;13997;48.902;12.472;2022-11-20T07:09:29;76.90;2227.20
26272;DHT22;13997;48.902;12.472;2022-11-20T07:11:55;76.90;2227.20
26272;DHT22;13997;48.902;12.472;2022-11-20T07:14:20;76.90;2227.20
26272;DHT22;13997;48.902;12.472;2022-11-20T07:16:46;77.00;2227.20
26272;DHT22;13997;48.902;12.472;2022-11-20T07:19:11;77.00;2227.20
26272;DHT22;13997;48.902;12.472;2022-11-20T07:21:37;77.00;2227.20
26272;DHT22;13997;48.902;12.472;2022-11-20T07:24:03;77.00;2227.20
26272;DHT22;13997;48.902;12.472;2022-11-20T07:26:28;77.00;2227.20
26272;DHT22;13997;48.902;12.472;2022-11-20T07:28:54;77.00;2227.20
26272;DHT22;13997;48.902;12.472;2022-11-20T07:31:19;77.00;2227.20
26272;DHT22;13997;48.902;12.472;2022-11-20T07:33:45;77.00;2227.20
26272;DHT22;13997;48.902;12.472;2022-11-20T07:36:11;77.00;2227.20
26272;DHT22;13997;48.902;12.472;2022-11-20T07:38:37;77.10;2227.20
26272;DHT22;13997;48.902;12.472;2022-11-20T07:41:03;77.10;2227.20
26272;DHT22;13997;48.902;12.472;2022-11-20T07:43:29;77.10;2227.20
26272;DHT22;13997;48.902;12.472;2022-11-20T07:45:56;77.20;2227.20
26272;DHT22;13997;48.902;12.472;2022-11-20T07:48:22;77.20;2227.20
26272;DHT22;13997;48.902;12.472;2022-11-20T07:50:47;77.20;2227.20
26272;DHT22;13997;48.902;12.472;2022-11-20T07:53:13;77.20;2227.20
26272;DHT22;13997;48.902;12.472;2022-11-20T07:55:39;77.20;2227.20
26272;DHT22;13997;48.902;12.472;2022-11-20T07:58:05;77.20;2227.20
26272;DHT22;13997;48.902;12.472;2022-11-20T08:00:31;77.30;2227.20
26272;DHT22;13997;48.902;12.472;2022-11-20T08:02:56;77.20;2227.20
26272;DHT22;13997;48.902;12.472;2022-11-20T08:05:22;77.30;2227.20
26272;DHT22;13997;48.902;12.472;2022-11-20T08:07:48;77.30;2227.20
26272;DHT22;13997;48.902;12.472;2022-11-20T08:10:15;77.20;2227.20
26272;DHT22;13997;48.902;12.472;2022-11-20T08:12:48;77.30;2227.20
26272;DHT22;13997;48.902;12.472;2022-11-20T08:15:33;77.30;2227.20
26272;DHT22;13997;48.902;12.472;2022-11-20T08:18:03;77.30;2227.20
26272;DHT22;13997;48.902;12.472;2022-11-20T08:20:28;77.30;2227.20
26272;DHT22;13997;48.902;12.472;2022-11-20T08:22:58;77.30;2227.20
26272;DHT22;13997;48.902;12.472;2022-11-20T08:25:25;77.40;2227.20
26272;DHT22;13997;48.902;12.472;2022-11-20T08:27:51;77.30;2227.20
26272;DHT22;13997;48.902;12.472;2022-11-20T08:30:17;77.40;2227.20
26272;DHT22;13997;48.902;12.472;2022-11-20T08:32:42;77.40;2227.20
26272;DHT22;13997;48.902;12.472;2022-11-20T08:35:08;77.40;2227.20
26272;DHT22;13997;48.902;12.472;2022-11-20T08:37:34;77.30;2227.20
26272;DHT22;13997;48.902;12.472;2022-11-20T08:39:59;77.30;2227.20
26272;DHT22;13997;48.902;12.472;2022-11-20T08:42:25;77.30;2227.20
26272;DHT22;13997;48.902;12.472;2022-11-20T08:44:51;77.30;2227.20
26272;DHT22;13997;48.902;12.472;2022-11-20T08:47:16;77.30;2227.20
26272;DHT22;13997;48.902;12.472;2022-11-20T08:49:42;77.30;2227.20
26272;DHT22;13997;48.902;12.472;2022-11-20T08:52:07;77.40;2227.20
26272;DHT22;13997;48.902;12.472;2022-11-20T08:54:33;77.40;2227.20
26272;DHT22;13997;48.902;12.472;2022-11-20T08:56:58;77.40;2227.20
26272;DHT22;13997;48.902;12.472;2022-11-20T08:59:24;77.40;2227.20
26272;DHT22;13997;48.902;12.472;2022-11-20T09:01:50;77.40;2227.20
26272;DHT22;13997;48.902;12.472;2022-11-20T09:04:15;77.40;2227.20
26272;DHT22;13997;48.902;12.472;2022-11-20T09:06:41;77.50;2227.20
26272;DHT22;13997;48.902;12.472;2022-11-20T09:09:06;77.40;2227.20
26272;DHT22;13997;48.902;12.472;2022-11-20T09:11:32;77.40;2227.20
26272;DHT22;13997;48.902;12.472;2022-11-20T09:13:59;77.40;2227.20
26272;DHT22;13997;48.902;12.472;2022-11-20T09:16:27;77.40;2227.20
26272;DHT22;13997;48.902;12.472;2022-11-20T09:18:53;77.40;2227.20
26272;DHT22;13997;48.902;12.472;2022-11-20T09:21:18;77.40;2227.20
26272;DHT22;13997;48.902;12.472;2022-11-20T09:23:44;77.40;2227.20
26272;DHT22;13997;48.902;12.472;2022-11-20T09:26:12;77.40;2227.20
26272;DHT22;13997;48.902;12.472;2022-11-20T09:28:39;77.40;2227.20
26272;DHT22;13997;48.902;12.472;2022-11-20T09:31:06;77.40;2227.20
26272;DHT22;13997;48.902;12.472;2022-11-20T09:33:32;77.50;2227.20
26272;DHT22;13997;48.902;12.472;2022-11-20T09:35:58;77.60;2227.20
26272;DHT22;13997;48.902;12.472;2022-11-20T09:38:23;77.60;2227.20
26272;DHT22;13997;48.902;12.472;2022-11-20T09:43:58;77.60;2227.20
26272;DHT22;13997;48.902;12.472;2022-11-20T09:52:25;102.50;2227.20
26272;DHT22;13997;48.902;12.472;2022-11-20T09:54:47;102.50;2227.20
26272;DHT22;13997;48.902;12.472;2022-11-20T09:57:17;102.60;2227.20
26272;DHT22;13997;48.902;12.472;2022-11-20T09:59:48;102.60;2227.20
26272;DHT22;13997;48.902;12.472;2022-11-20T10:05:04;102.60;2227.20
26272;DHT22;13997;48.902;12.472;2022-11-20T10:08:01;102.50;2227.20
26272;DHT22;13997;48.902;12.472;2022-11-20T10:10:46;102.50;2227.20
26272;DHT22;13997;48.902;12.472;2022-11-20T10:16:46;102.60;2227.20
26272;DHT22;13997;48.902;12.472;2022-11-20T10:22:49;102.70;2227.20
26272;DHT22;13997;48.902;12.472;2022-11-20T10:25:18;102.80;2227.20
26272;DHT22;13997;48.902;12.472;2022-11-20T10:28:03;102.80;2227.20
26272;DHT22;13997;48.902;12.472;2022-11-20T10:30:36;102.80;2227.20
26272;DHT22;13997;48.902;12.472;2022-11-20T10:33:15;102.80;2227.20
26272;DHT22;13997;48.902;12.472;2022-11-20T10:35:45;102.90;2227.20
26272;DHT22;13997;48.902;12.472;2022-11-20T10:38:21;102.90;2227.20
26272;DHT22;13997;48.902;12.472;2022-11-20T10:40:53;102.90;2227.20
26272;DHT22;13997;48.902;12.472;2022-11-20T10:43:39;102.90;2227.20
26272;DHT22;13997;48.902;12.472;2022-11-20T10:46:15;102.80;2227.20
26272;DHT22;13997;48.902;12.472;2022-11-20T10:48:43;102.80;2227.20
26272;DHT22;13997;48.902;12.472;2022-11-20T10:54:04;102.90;2227.20
26272;DHT22;13997;48.902;12.472;2022-11-20T10:56:51;102.90;2227.20
26272;DHT22;13997;48.902;12.472;2022-11-20T11:01:52;102.90;2227.20
26272;DHT22;13997;48.902;12.472;2022-11-20T11:06:49;103.00;2227.20
26272;DHT22;13997;48.902;12.472;2022-11-20T11:09:30;103.00;2227.20
26272;DHT22;13997;48.902;12.472;2022-11-20T11:11:58;102.90;2227.20
26272;DHT22;13997;48.902;12.472;2022-11-20T11:14:23;103.00;2227.20
26272;DHT22;13997;48.902;12.472;2022-11-20T11:16:57;103.00;2227.20
26272;DHT22;13997;48.902;12.472;2022-11-20T11:19:23;103.00;2227.20
26272;DHT22;13997;48.902;12.472;2022-11-20T11:21:51;103.10;2227.20
26272;DHT22;13997;48.902;12.472;2022-11-20T11:24:25;103.10;2227.20
26272;DHT22;13997;48.902;12.472;2022-11-20T11:27:03;103.10;2227.20
26272;DHT22;13997;48.902;12.472;2022-11-20T11:29:32;103.10;2227.20
26272;DHT22;13997;48.902;12.472;2022-11-20T11:32:27;103.20;2227.20
26272;DHT22;13997;48.902;12.472;2022-11-20T11:35:00;103.20;2227.20
26272;DHT22;13997;48.902;12.472;2022-11-20T11:37:35;103.20;2227.20
26272;DHT22;13997;48.902;12.472;2022-11-20T11:40:03;103.30;2227.20
26272;DHT22;13997;48.902;12.472;2022-11-20T11:42:30;103.30;2227.20
26272;DHT22;13997;48.902;12.472;2022-11-20T11:44:59;103.30;2227.20
26272;DHT22;13997;48.902;12.472;2022-11-20T11:47:44;128.00;2252.80
26272;DHT22;13997;48.902;12.472;2022-11-20T11:50:25;128.00;2252.80
26272;DHT22;13997;48.902;12.472;2022-11-20T11:53:17;128.00;2252.80
26272;DHT22;13997;48.902;12.472;2022-11-20T11:55:54;128.10;2252.80
26272;DHT22;13997;48.902;12.472;2022-11-20T12:03:58;128.20;2252.80
26272;DHT22;13997;48.902;12.472;2022-11-20T12:06:25;128.20;2252.80
26272;DHT22;13997;48.902;12.472;2022-11-20T12:08:56;128.20;2252.80
26272;DHT22;13997;48.902;12.472;2022-11-20T12:11:54;128.20;2252.80
26272;DHT22;13997;48.902;12.472;2022-11-20T12:14:38;128.20;2252.80
26272;DHT22;13997;48.902;12.472;2022-11-20T12:17:09;128.20;2252.80
26272;DHT22;13997;48.902;12.472;2022-11-20T12:19:36;128.20;2252.80
26272;DHT22;13997;48.902;12.472;2022-11-20T12:25:27;128.40;2252.80
26272;DHT22;13997;48.902;12.472;2022-11-20T12:33:56;128.90;2252.80
26272;DHT22;13997;48.902;12.472;2022-11-20T12:36:33;153.60;2252.80
26272;DHT22;13997;48.902;12.472;2022-11-20T12:41:51;153.80;2252.80
26272;DHT22;13997;48.902;12.472;2022-11-20T12:53:37;154.00;2252.80
26272;DHT22;13997;48.902;12.472;2022-11-20T12:58:48;154.00;2252.80
26272;DHT22;13997;48.902;12.472;2022-11-20T13:04:12;154.10;2252.80
26272;DHT22;13997;48.902;12.472;2022-11-20T13:06:40;154.10;2252.80
26272;DHT22;13997;48.902;12.472;2022-11-20T13:09:12;154.10;2252.80
26272;DHT22;13997;48.902;12.472;2022-11-20T13:11:50;154.10;2252.80
26272;DHT22;13997;48.902;12.472;2022-11-20T13:19:37;154.10;2252.80
26272;DHT22;13997;48.902;12.472;2022-11-20T13:22:03;154.10;2252.80
26272;DHT22;13997;48.902;12.472;2022-11-20T13:24:30;154.10;2252.80
26272;DHT22;13997;48.902;12.472;2022-11-20T13:27:22;154.10;2252.80
26272;DHT22;13997;48.902;12.472;2022-11-20T13:30:15;154.10;2252.80
26272;DHT22;13997;48.902;12.472;2022-11-20T13:33:01;154.10;2252.80
26272;DHT22;13997;48.902;12.472;2022-11-20T13:35:33;154.20;2252.80
26272;DHT22;13997;48.902;12.472;2022-11-20T13:38:18;154.20;2252.80
26272;DHT22;13997;48.902;12.472;2022-11-20T13:46:07;154.30;2252.80
26272;DHT22;13997;48.902;12.472;2022-11-20T13:48:44;154.30;2252.80
26272;DHT22;13997;48.902;12.472;2022-11-20T13:54:21;154.30;2252.80
26272;DHT22;13997;48.902;12.472;2022-11-20T14:02:01;154.30;2252.80
26272;DHT22;13997;48.902;12.472;2022-11-20T14:04:32;154.30;2252.80
26272;DHT22;13997;48.902;12.472;2022-11-20T14:06:59;154.30;2252.80
26272;DHT22;13997;48.902;12.472;2022-11-20T14:09:35;154.30;2252.80
26272;DHT22;13997;48.902;12.472;2022-11-20T14:12:02;154.30;2252.80
26272;DHT22;13997;48.902;12.472;2022-11-20T14:14:29;154.30;2252.80
26272;DHT22;13997;48.902;12.472;2022-11-20T14:17:21;154.30;2252.80
26272;DHT22;13997;48.902;12.472;2022-11-20T14:19:49;154.30;2252.80
26272;DHT22;13997;48.902;12.472;2022-11-20T14:22:21;154.30;2252.80
26272;DHT22;13997;48.902;12.472;2022-11-20T14:24:48;154.30;2252.80
26272;DHT22;13997;48.902;12.472;2022-11-20T14:27:19;154.30;2252.80
26272;DHT22;13997;48.902;12.472;2022-11-20T14:29:47;154.30;2252.80
26272;DHT22;13997;48.902;12.472;2022-11-20T14:32:18;154.20;2252.80
26272;DHT22;13997;48.902;12.472;2022-11-20T14:34:47;154.20;2252.80
26272;DHT22;13997;48.902;12.472;2022-11-20T14:37:19;154.20;2252.80
26272;DHT22;13997;48.902;12.472;2022-11-20T14:39:55;154.20;2252.80
26272;DHT22;13997;48.902;12.472;2022-11-20T14:42:31;154.20;2252.80
26272;DHT22;13997;48.902;12.472;2022-11-20T14:44:59;154.20;2252.80
26272;DHT22;13997;48.902;12.472;2022-11-20T14:47:29;154.20;2252.80
26272;DHT22;13997;48.902;12.472;2022-11-20T14:49:56;154.20;2252.80
26272;DHT22;13997;48.902;12.472;2022-11-20T14:52:24;154.20;2252.80
26272;DHT22;13997;48.902;12.472;2022-11-20T14:54:52;154.20;2252.80
26272;DHT22;13997;48.902;12.472;2022-11-20T14:57:29;154.20;2252.80
26272;DHT22;13997;48.902;12.472;2022-11-20T15:02:41;154.10;2252.80
26272;DHT22;13997;48.902;12.472;2022-11-20T15:05:07;154.10;2252.80
26272;DHT22;13997;48.902;12.472;2022-11-20T15:07:39;154.20;2252.80
26272;DHT22;13997;48.902;12.472;2022-11-20T15:10:18;154.10;2252.80
26272;DHT22;13997;48.902;12.472;2022-11-20T15:12:50;154.10;2252.80
26272;DHT22;13997;48.902;12.472;2022-11-20T15:15:36;154.10;2252.80
26272;DHT22;13997;48.902;12.472;2022-11-20T15:18:04;154.10;2252.80
26272;DHT22;13997;48.902;12.472;2022-11-20T15:20:31;154.20;2252.80
26272;DHT22;13997;48.902;12.472;2022-11-20T15:22:58;154.10;2252.80
26272;DHT22;13997;48.902;12.472;2022-11-20T15:25:23;154.10;2252.80
26272;DHT22;13997;48.902;12.472;2022-11-20T15:27:53;154.10;2252.80
26272;DHT22;13997;48.902;12.472;2022-11-20T15:30:20;154.10;2252.80
26272;DHT22;13997;48.902;12.472;2022-11-20T15:32:46;154.10;2252.80
26272;DHT22;13997;48.902;12.472;2022-11-20T15:35:13;154.10;2252.80
26272;DHT22;13997;48.902;12.472;2022-11-20T15:37:39;154.20;2252.80
26272;DHT22;13997;48.902;12.472;2022-11-20T15:40:06;154.20;2252.80
26272;DHT22;13997;48.902;12.472;2022-11-20T15:42:33;154.20;2252.80
26272;DHT22;13997;48.902;12.472;2022-11-20T15:44:58;154.20;2252.80
26272;DHT22;13997;48.902;12.472;2022-11-20T15:47:33;154.20;2252.80
26272;DHT22;13997;48.902;12.472;2022-11-20T15:49:59;154.20;2252.80
26272;DHT22;13997;48.902;12.472;2022-11-20T15:52:25;154.20;2252.80
26272;DHT22;13997;48.902;12.472;2022-11-20T15:54:51;154.20;2252.80
26272;DHT22;13997;48.902;12.472;2022-11-20T15:57:16;154.20;2252.80
26272;DHT22;13997;48.902;12.472;2022-11-20T15:59:42;154.10;2252.80
26272;DHT22;13997;48.902;12.472;2022-11-20T16:02:11;154.20;2252.80
26272;DHT22;13997;48.902;12.472;2022-11-20T16:04:38;154.20;2252.80
26272;DHT22;13997;48.902;12.472;2022-11-20T16:07:04;154.20;2252.80
26272;DHT22;13997;48.902;12.472;2022-11-20T16:09:29;154.20;2252.80
26272;DHT22;13997;48.902;12.472;2022-11-20T16:11:55;154.10;2252.80
26272;DHT22;13997;48.902;12.472;2022-11-20T16:14:21;154.10;2252.80
26272;DHT22;13997;48.902;12.472;2022-11-20T16:17:05;154.10;2252.80
26272;DHT22;13997;48.902;12.472;2022-11-20T16:19:31;154.10;2252.80
26272;DHT22;13997;48.902;12.472;2022-11-20T16:21:59;154.00;2252.80
26272;DHT22;13997;48.902;12.472;2022-11-20T17:18:21;153.60;2252.80
26272;DHT22;13997;48.902;12.472;2022-11-20T19:04:54;102.80;2227.20
26272;DHT22;13997;48.902;12.472;2022-11-20T19:07:20;102.80;2227.20